createdAt,value
2023-01-29T00:00:10.601Z,10.57
2023-01-29T00:02:39.996Z,11.95
2023-01-29T00:05:26.005Z,13.40
2023-01-29T00:07:55.097Z,11.98
2023-01-29T00:10:21.991Z,12.95
2023-01-29T00:12:48.765Z,12.60
2023-01-29T00:15:15.524Z,13.13
2023-01-29T00:17:42.433Z,10.68
2023-01-29T00:20:09.843Z,15.23
2023-01-29T00:22:36.849Z,14.65
2023-01-29T00:25:03.780Z,12.55
2023-01-29T00:27:30.588Z,16.95
2023-01-29T00:30:09.443Z,13.38
2023-01-29T00:32:36.458Z,11.20
2023-01-29T00:35:03.780Z,13.40
2023-01-29T00:37:30.972Z,19.25
2023-01-29T00:39:57.844Z,28.77
2023-01-29T00:42:43.711Z,22.92
2023-01-29T00:45:12.133Z,23.25
2023-01-29T00:47:38.876Z,19.67
2023-01-29T00:50:10.817Z,17.00
2023-01-29T00:52:38.541Z,13.95
2023-01-29T00:55:06.484Z,13.55
2023-01-29T00:57:35.617Z,11.50
2023-01-29T01:00:04.340Z,10.43
2023-01-29T01:02:49.459Z,11.77
2023-01-29T01:05:18.374Z,14.23
2023-01-29T01:07:53.330Z,15.32
2023-01-29T01:10:32.358Z,12.43
2023-01-29T01:13:05.187Z,11.43
2023-01-29T01:15:35.256Z,11.82
2023-01-29T01:18:04.474Z,9.82
2023-01-29T01:20:34.394Z,10.75
2023-01-29T01:23:01.183Z,9.70
2023-01-29T01:25:28.116Z,10.27
2023-01-29T01:27:57.177Z,10.38
2023-01-29T01:30:25.194Z,11.32
2023-01-29T01:32:52.655Z,9.13
2023-01-29T01:35:19.560Z,10.73
2023-01-29T01:37:46.435Z,7.80
2023-01-29T01:40:19.746Z,8.18
2023-01-29T01:42:50.816Z,6.80
2023-01-29T01:45:35.665Z,9.38
2023-01-29T01:48:25.063Z,10.55
2023-01-29T01:51:01.548Z,12.90
2023-01-29T01:53:38.594Z,12.40
2023-01-29T01:56:09.438Z,9.32
2023-01-29T01:58:47.891Z,10.15
2023-01-29T02:01:15.361Z,10.07
2023-01-29T02:04:12.369Z,13.55
2023-01-29T02:06:59.461Z,11.07
2023-01-29T02:09:38.940Z,10.65
2023-01-29T02:12:11.182Z,10.25
2023-01-29T02:14:40.469Z,9.57
2023-01-29T02:17:09.884Z,11.82
2023-01-29T02:19:58.524Z,11.55
2023-01-29T02:22:56.375Z,13.98
2023-01-29T02:25:47.181Z,13.50
2023-01-29T02:28:28.087Z,13.55
2023-01-29T02:31:19.358Z,15.80
2023-01-29T02:33:59.723Z,11.77
2023-01-29T02:36:40.999Z,13.23
2023-01-29T02:39:32.539Z,14.60
2023-01-29T02:42:20.391Z,11.60
2023-01-29T02:45:04.382Z,13.23
2023-01-29T02:50:13.122Z,12.95
2023-01-29T02:58:17.467Z,14.10
2023-01-29T03:00:46.965Z,13.15
2023-01-29T03:03:19.607Z,13.80
2023-01-29T03:05:58.880Z,13.73
2023-01-29T03:08:43.330Z,10.75
2023-01-29T03:11:15.585Z,15.77
2023-01-29T03:13:55.912Z,12.00
2023-01-29T03:16:28.164Z,11.75
2023-01-29T03:19:04.750Z,10.63
2023-01-29T03:21:55.230Z,10.95
2023-01-29T03:24:58.455Z,16.52
2023-01-29T03:27:50.353Z,14.88
2023-01-29T03:30:37.751Z,15.82
2023-01-29T03:33:26.472Z,14.65
2023-01-29T03:36:00.913Z,14.75
2023-01-29T03:38:29.793Z,19.98
2023-01-29T03:41:06.606Z,18.83
2023-01-29T03:43:33.495Z,15.02
2023-01-29T03:46:08.447Z,16.55
2023-01-29T03:48:57.173Z,14.23
2023-01-29T03:51:23.893Z,16.52
2023-01-29T03:54:09.883Z,17.23
2023-01-29T03:56:37.608Z,13.98
2023-01-29T03:59:28.499Z,14.48
2023-01-29T04:02:22.034Z,13.95
2023-01-29T04:04:52.006Z,20.88
2023-01-29T04:07:24.659Z,16.73
2023-01-29T04:10:06.063Z,16.98
2023-01-29T04:12:40.361Z,15.38
2023-01-29T04:15:11.213Z,10.65
2023-01-29T04:17:42.884Z,10.63
2023-01-29T04:20:16.844Z,17.33
2023-01-29T04:22:51.954Z,15.23
2023-01-29T04:25:32.362Z,14.05
2023-01-29T04:28:17.801Z,12.25
2023-01-29T04:31:02.979Z,13.10
2023-01-29T04:33:49.076Z,14.15
2023-01-29T04:36:28.206Z,14.60
2023-01-29T04:39:06.047Z,19.05
2023-01-29T04:42:09.736Z,16.77
2023-01-29T04:44:49.868Z,16.10
2023-01-29T04:47:38.309Z,15.93
2023-01-29T04:50:33.898Z,12.88
2023-01-29T04:53:05.673Z,12.27
2023-01-29T04:55:51.536Z,13.40
2023-01-29T04:58:42.052Z,11.45
2023-01-29T05:01:13.465Z,12.77
2023-01-29T05:03:44.804Z,11.30
2023-01-29T05:06:12.662Z,10.25
2023-01-29T05:08:41.232Z,13.05
2023-01-29T05:11:08.363Z,11.10
2023-01-29T05:13:39.566Z,9.07
2023-01-29T05:16:28.285Z,10.82
2023-01-29T05:18:55.485Z,9.35
2023-01-29T05:21:23.404Z,9.30
2023-01-29T05:24:16.210Z,8.68
2023-01-29T05:27:05.167Z,9.23
2023-01-29T05:29:31.981Z,9.43
2023-01-29T05:31:58.904Z,10.65
2023-01-29T05:34:26.119Z,6.07
2023-01-29T05:36:53.114Z,7.18
2023-01-29T05:39:19.982Z,9.90
2023-01-29T05:41:46.792Z,8.15
2023-01-29T05:44:13.792Z,5.40
2023-01-29T05:46:40.610Z,8.25
2023-01-29T05:49:07.451Z,11.40
2023-01-29T05:51:34.198Z,10.52
2023-01-29T05:54:01.252Z,8.27
2023-01-29T05:56:28.023Z,9.23
2023-01-29T05:58:55.956Z,11.88
2023-01-29T06:01:26.179Z,9.95
2023-01-29T06:03:52.985Z,7.57
2023-01-29T06:06:19.765Z,11.40
2023-01-29T06:08:46.889Z,7.70
2023-01-29T06:11:15.187Z,10.55
2023-01-29T06:13:42.282Z,9.07
2023-01-29T06:16:10.188Z,6.50
2023-01-29T06:18:37.669Z,9.27
2023-01-29T06:21:06.559Z,8.45
2023-01-29T06:23:33.401Z,8.35
2023-01-29T06:26:05.457Z,8.55
2023-01-29T06:28:32.376Z,10.50
2023-01-29T06:31:12.008Z,6.82
2023-01-29T06:33:49.986Z,7.88
2023-01-29T06:36:16.695Z,7.68
2023-01-29T06:38:43.369Z,10.88
2023-01-29T06:41:12.097Z,9.75
2023-01-29T06:43:39.446Z,9.20
2023-01-29T06:46:08.477Z,11.10
2023-01-29T06:48:35.655Z,10.88
2023-01-29T06:51:07.589Z,8.10
2023-01-29T06:53:35.814Z,8.85
2023-01-29T06:56:02.947Z,9.60
2023-01-29T06:58:29.748Z,8.85
2023-01-29T07:01:04.599Z,8.00
2023-01-29T07:03:31.454Z,9.60
2023-01-29T07:05:58.270Z,6.80
2023-01-29T07:08:25.062Z,8.07
2023-01-29T07:10:51.766Z,6.63
2023-01-29T07:13:18.552Z,11.13
2023-01-29T07:15:45.252Z,8.48
2023-01-29T07:18:12.655Z,10.93
2023-01-29T07:20:40.793Z,10.27
2023-01-29T07:23:11.571Z,8.88
2023-01-29T07:25:39.586Z,12.98
2023-01-29T07:28:12.672Z,15.02
2023-01-29T07:30:39.644Z,8.68
2023-01-29T07:33:08.675Z,8.90
2023-01-29T07:35:40.601Z,11.32
2023-01-29T07:38:09.217Z,11.30
2023-01-29T07:40:36.497Z,12.15
2023-01-29T07:43:06.013Z,13.95
2023-01-29T07:45:35.689Z,12.02
2023-01-29T07:48:04.945Z,18.65
2023-01-29T07:50:33.067Z,20.35
2023-01-29T07:53:00.323Z,18.27
2023-01-29T07:55:27.558Z,15.18
2023-01-29T07:58:04.259Z,13.43
2023-01-29T08:00:32.505Z,17.65
2023-01-29T08:03:07.989Z,17.50
2023-01-29T08:05:34.908Z,19.48
2023-01-29T08:08:07.002Z,18.08
2023-01-29T08:10:39.431Z,23.83
2023-01-29T08:13:07.366Z,21.38
2023-01-29T08:15:36.067Z,17.42
2023-01-29T08:18:05.174Z,19.17
2023-01-29T08:20:32.179Z,15.73
2023-01-29T08:23:08.567Z,17.27
2023-01-29T08:25:44.314Z,13.00
2023-01-29T08:28:12.476Z,9.68
2023-01-29T08:30:39.603Z,12.00
2023-01-29T08:33:06.911Z,12.77
2023-01-29T08:35:48.762Z,12.07
2023-01-29T08:38:15.893Z,12.73
2023-01-29T08:40:42.915Z,10.77
2023-01-29T08:43:11.509Z,17.80
2023-01-29T08:45:43.064Z,21.13
2023-01-29T08:48:10.929Z,22.50
2023-01-29T08:50:38.226Z,20.25
2023-01-29T08:53:10.210Z,21.05
2023-01-29T08:55:40.925Z,15.57
2023-01-29T08:58:08.995Z,10.90
2023-01-29T09:00:36.181Z,9.88
2023-01-29T09:03:03.936Z,10.73
2023-01-29T09:05:34.312Z,10.82
2023-01-29T09:08:01.085Z,8.98
2023-01-29T09:10:28.076Z,14.32
2023-01-29T09:12:54.958Z,12.52
2023-01-29T09:15:22.339Z,10.70
2023-01-29T09:17:51.920Z,15.48
2023-01-29T09:20:22.268Z,12.73
2023-01-29T09:22:50.781Z,13.70
2023-01-29T09:25:18.017Z,14.50
2023-01-29T09:27:45.131Z,8.43
2023-01-29T09:30:12.796Z,13.10
2023-01-29T09:32:55.246Z,11.75
2023-01-29T09:35:23.706Z,11.90
2023-01-29T09:37:51.020Z,10.55
2023-01-29T09:40:45.793Z,12.07
2023-01-29T09:43:20.516Z,11.13
2023-01-29T09:45:57.385Z,13.80
2023-01-29T09:48:28.886Z,10.82
2023-01-29T09:50:58.715Z,13.00
2023-01-29T09:53:30.685Z,12.48
2023-01-29T09:56:04.408Z,10.38
2023-01-29T09:58:36.167Z,11.45
2023-01-29T10:01:14.143Z,10.95
2023-01-29T10:04:08.033Z,11.57
2023-01-29T10:06:47.239Z,9.93
2023-01-29T10:09:42.218Z,8.43
2023-01-29T10:12:52.648Z,13.00
2023-01-29T10:15:45.505Z,9.63
2023-01-29T10:18:48.160Z,11.52
2023-01-29T10:21:48.885Z,8.85
2023-01-29T10:24:33.025Z,10.02
2023-01-29T10:27:01.993Z,8.13
2023-01-29T10:29:31.617Z,8.50
2023-01-29T10:32:05.200Z,9.55
2023-01-29T10:34:46.937Z,8.00
2023-01-29T10:37:21.690Z,8.43
2023-01-29T10:39:48.801Z,10.80
2023-01-29T10:42:21.293Z,10.63
2023-01-29T10:45:07.743Z,9.60
2023-01-29T10:47:34.572Z,9.45
2023-01-29T10:50:19.520Z,8.32
2023-01-29T10:53:00.956Z,8.30
2023-01-29T10:55:43.635Z,7.35
2023-01-29T10:59:05.998Z,11.50
2023-01-29T11:01:32.859Z,8.98
2023-01-29T11:04:06.445Z,7.70
2023-01-29T11:06:37.005Z,9.10
2023-01-29T11:12:15.865Z,11.10
2023-01-29T11:14:48.626Z,8.57
2023-01-29T11:17:20.841Z,12.55
2023-01-29T11:19:51.365Z,10.30
2023-01-29T11:22:23.487Z,9.27
2023-01-29T11:25:11.467Z,8.68
2023-01-29T11:27:52.371Z,8.32
2023-01-29T11:30:42.776Z,7.60
2023-01-29T11:33:12.707Z,7.90
2023-01-29T11:35:39.666Z,9.88
2023-01-29T11:38:14.297Z,7.53
2023-01-29T11:40:41.476Z,8.38
2023-01-29T11:43:27.161Z,9.52
2023-01-29T11:45:57.655Z,10.30
2023-01-29T11:48:59.194Z,13.23
2023-01-29T11:51:34.408Z,10.85
2023-01-29T11:54:03.883Z,14.70
2023-01-29T11:56:45.574Z,12.48
2023-01-29T11:59:39.962Z,10.55
2023-01-29T12:02:34.271Z,9.02
2023-01-29T12:05:15.522Z,11.35
2023-01-29T12:07:44.282Z,8.63
2023-01-29T12:10:33.033Z,9.90
2023-01-29T12:13:07.414Z,9.65
2023-01-29T12:15:34.340Z,9.40
2023-01-29T12:18:22.862Z,10.18
2023-01-29T12:20:56.325Z,9.50
2023-01-29T12:23:48.778Z,10.63
2023-01-29T12:26:24.524Z,11.13
2023-01-29T12:29:17.175Z,9.65
2023-01-29T12:32:19.952Z,8.73
2023-01-29T12:34:59.179Z,11.18
2023-01-29T12:37:52.147Z,10.65
2023-01-29T12:40:21.818Z,10.32
2023-01-29T12:42:52.147Z,10.32
2023-01-29T12:45:23.221Z,9.95
2023-01-29T12:47:58.550Z,10.13
2023-01-29T12:50:32.689Z,10.27
2023-01-29T12:53:13.094Z,12.73
2023-01-29T12:55:45.349Z,11.13
2023-01-29T12:58:20.686Z,9.18
2023-01-29T13:00:54.711Z,10.50
2023-01-29T13:03:42.228Z,9.45
2023-01-29T13:06:20.869Z,10.05
2023-01-29T13:08:54.922Z,9.38
2023-01-29T13:11:31.318Z,9.30
2023-01-29T13:14:24.235Z,10.50
2023-01-29T13:16:55.835Z,8.32
2023-01-29T13:19:34.387Z,8.60
2023-01-29T13:22:05.472Z,8.90
2023-01-29T13:30:02.733Z,6.57
2023-01-29T13:32:31.923Z,7.05
2023-01-29T13:35:04.755Z,8.65
2023-01-29T13:37:38.317Z,10.85
2023-01-29T13:40:07.927Z,9.13
2023-01-29T13:42:45.614Z,7.82
2023-01-29T13:45:21.170Z,12.02
2023-01-29T13:47:50.182Z,13.65
2023-01-29T13:50:42.574Z,10.25
2023-01-29T13:53:21.437Z,7.97
2023-01-29T13:55:48.842Z,6.80
2023-01-29T13:58:44.121Z,9.43
2023-01-29T14:01:11.139Z,8.20
2023-01-29T14:03:56.685Z,7.75
2023-01-29T14:06:41.640Z,7.40
2023-01-29T14:09:33.356Z,9.45
2023-01-29T14:12:00.357Z,7.05
2023-01-29T14:15:16.416Z,13.70
2023-01-29T14:18:06.307Z,10.18
2023-01-29T14:20:45.582Z,10.00
2023-01-29T14:23:41.624Z,8.40
2023-01-29T14:26:34.934Z,9.32
2023-01-29T14:29:04.505Z,7.82
2023-01-29T14:31:35.445Z,7.45
2023-01-29T14:34:04.984Z,8.80
2023-01-29T14:36:43.427Z,7.97
2023-01-29T14:39:30.091Z,9.00
2023-01-29T14:41:58.417Z,8.73
2023-01-29T14:44:48.672Z,8.73
2023-01-29T14:47:20.615Z,7.68
2023-01-29T14:49:56.775Z,6.47
2023-01-29T14:52:44.353Z,6.72
2023-01-29T14:55:42.034Z,6.57
2023-01-29T14:58:21.987Z,7.57
2023-01-29T15:00:53.558Z,7.30
2023-01-29T15:03:30.379Z,6.35
2023-01-29T15:05:59.652Z,9.05
2023-01-29T15:08:37.960Z,8.75
2023-01-29T15:11:31.245Z,9.35
2023-01-29T15:14:24.154Z,8.93
2023-01-29T15:16:54.459Z,7.45
2023-01-29T15:19:50.552Z,8.13
2023-01-29T15:22:22.404Z,8.27
2023-01-29T15:25:16.610Z,9.57
2023-01-29T15:27:46.804Z,8.27
2023-01-29T15:30:29.459Z,9.30
2023-01-29T15:32:56.816Z,7.22
2023-01-29T15:35:37.272Z,10.52
2023-01-29T15:38:14.536Z,7.57
2023-01-29T15:40:41.479Z,9.05
2023-01-29T15:43:23.068Z,8.80
2023-01-29T15:45:52.120Z,8.27
2023-01-29T15:48:23.107Z,10.73
2023-01-29T15:53:21.586Z,8.43
2023-01-29T15:55:48.973Z,9.05
2023-01-29T15:58:22.957Z,7.78
2023-01-29T16:00:55.673Z,7.72
2023-01-29T16:03:24.806Z,11.30
2023-01-29T16:05:52.748Z,9.77
2023-01-29T16:08:22.053Z,11.85
2023-01-29T16:10:54.351Z,10.40
2023-01-29T16:13:24.492Z,10.63
2023-01-29T16:16:01.884Z,12.05
2023-01-29T16:18:35.361Z,12.45
2023-01-29T16:21:14.589Z,13.38
2023-01-29T16:23:48.725Z,11.18
2023-01-29T16:26:19.930Z,11.35
2023-01-29T16:31:26.255Z,14.52
2023-01-29T16:33:53.879Z,11.95
2023-01-29T16:36:23.847Z,16.45
2023-01-29T16:38:54.795Z,14.60
2023-01-29T16:41:21.609Z,16.20
2023-01-29T16:43:58.970Z,18.88
2023-01-29T16:49:25.995Z,21.65
2023-01-29T16:51:54.770Z,24.80
2023-01-29T16:54:24.872Z,29.25
2023-01-29T16:57:00.242Z,25.15
2023-01-29T16:59:35.198Z,21.45
2023-01-29T17:02:03.843Z,19.88
2023-01-29T17:04:30.829Z,19.92
2023-01-29T17:07:01.419Z,24.52
2023-01-29T17:09:35.234Z,19.45
2023-01-29T17:12:06.800Z,22.70
2023-01-29T17:14:34.518Z,22.45
2023-01-29T17:17:37.700Z,21.58
2023-01-29T17:20:16.411Z,20.13
2023-01-29T17:22:44.894Z,18.13
2023-01-29T17:25:15.651Z,20.70
2023-01-29T17:27:51.563Z,20.55
2023-01-29T17:30:22.554Z,26.13
2023-01-29T17:32:49.576Z,31.85
2023-01-29T17:35:20.198Z,23.75
2023-01-29T17:37:47.370Z,28.70
2023-01-29T17:40:33.619Z,30.27
2023-01-29T17:43:00.667Z,57.83
2023-01-29T17:45:27.864Z,46.95
2023-01-29T17:47:54.826Z,40.47
2023-01-29T17:50:26.506Z,40.45
2023-01-29T17:52:54.122Z,39.47
2023-01-29T17:55:21.103Z,34.42
2023-01-29T17:57:48.514Z,30.45
2023-01-29T18:00:20.101Z,41.15
2023-01-29T18:02:47.540Z,40.95
2023-01-29T18:05:15.838Z,32.65
2023-01-29T18:07:45.238Z,32.80
2023-01-29T18:10:16.457Z,26.80
2023-01-29T18:15:11.537Z,23.42
2023-01-29T18:17:38.990Z,25.70
2023-01-29T18:20:32.591Z,25.02
2023-01-29T18:23:04.168Z,27.52
2023-01-29T18:25:31.585Z,33.25
2023-01-29T18:27:58.455Z,34.97
2023-01-29T18:30:27.805Z,33.55
2023-01-29T18:32:54.760Z,25.17
2023-01-29T18:35:22.433Z,31.02
2023-01-29T18:37:49.653Z,27.67
2023-01-29T18:40:17.491Z,37.42
2023-01-29T18:42:45.399Z,40.22
2023-01-29T18:45:13.664Z,31.35
2023-01-29T18:47:41.210Z,36.05
2023-01-29T18:50:08.733Z,34.17
2023-01-29T18:52:35.595Z,38.55
2023-01-29T18:55:02.571Z,44.10
2023-01-29T18:58:25.192Z,31.75
2023-01-29T19:00:16.976Z,40.30
2023-01-29T19:02:45.458Z,32.13
2023-01-29T19:05:12.477Z,32.40
2023-01-29T19:07:39.299Z,31.42
2023-01-29T19:10:09.306Z,28.25
2023-01-29T19:12:38.238Z,33.80
2023-01-29T19:15:05.646Z,30.17
2023-01-29T19:17:33.231Z,25.23
2023-01-29T19:20:04.875Z,32.10
2023-01-29T19:22:32.316Z,37.15
2023-01-29T19:24:59.226Z,40.55
2023-01-29T19:27:30.410Z,44.85
2023-01-29T19:29:58.264Z,38.13
2023-01-29T19:32:29.066Z,36.38
2023-01-29T19:34:58.025Z,31.30
2023-01-29T19:37:25.645Z,40.10
2023-01-29T19:39:53.900Z,40.53
2023-01-29T19:42:21.107Z,35.65
2023-01-29T19:44:48.557Z,35.28
2023-01-29T19:47:15.767Z,33.63
2023-01-29T19:49:42.842Z,31.70
2023-01-29T19:52:15.052Z,31.77
2023-01-29T19:54:51.299Z,24.10
2023-01-29T19:57:18.538Z,26.83
2023-01-29T19:59:47.239Z,31.52
2023-01-29T20:02:14.644Z,35.42
2023-01-29T20:04:41.860Z,38.45
2023-01-29T20:07:09.655Z,43.10
2023-01-29T20:09:36.920Z,35.80
2023-01-29T20:12:04.215Z,25.67
2023-01-29T20:14:31.492Z,24.13
2023-01-29T20:16:58.604Z,70.13
2023-01-29T20:19:25.616Z,64.40
2023-01-29T20:21:52.946Z,65.57
2023-01-29T20:24:20.109Z,48.50
2023-01-29T20:26:47.415Z,43.55
2023-01-29T20:29:15.462Z,39.83
2023-01-29T20:31:42.657Z,40.78
2023-01-29T20:34:10.009Z,44.72
2023-01-29T20:36:37.480Z,44.40
2023-01-29T20:39:04.877Z,58.75
2023-01-29T20:41:32.056Z,47.97
2023-01-29T20:43:59.458Z,40.72
2023-01-29T20:46:27.420Z,34.67
2023-01-29T20:48:55.882Z,33.70
2023-01-29T20:51:23.561Z,33.53
2023-01-29T20:53:50.721Z,63.42
2023-01-29T20:56:18.609Z,47.28
2023-01-29T20:58:59.314Z,35.05
2023-01-29T21:01:26.576Z,34.80
2023-01-29T21:03:53.853Z,33.42
2023-01-29T21:06:21.037Z,31.98
2023-01-29T21:08:48.451Z,26.33
2023-01-29T21:11:15.802Z,38.78
2023-01-29T21:13:44.174Z,30.20
2023-01-29T21:16:11.632Z,24.98
2023-01-29T21:18:38.960Z,24.75
2023-01-29T21:21:06.292Z,25.13
2023-01-29T21:23:33.702Z,38.63
2023-01-29T21:26:05.372Z,29.50
2023-01-29T21:28:32.875Z,27.58
2023-01-29T21:31:10.722Z,31.02
2023-01-29T21:33:38.092Z,31.92
2023-01-29T21:36:05.676Z,38.78
2023-01-29T21:38:33.190Z,39.03
2023-01-29T21:41:02.682Z,40.58
2023-01-29T21:43:29.881Z,31.55
2023-01-29T21:45:58.243Z,31.58
2023-01-29T21:48:25.872Z,30.30
2023-01-29T21:50:53.474Z,22.95
2023-01-29T21:53:20.679Z,32.20
2023-01-29T21:55:47.941Z,26.45
2023-01-29T21:58:14.914Z,23.45
2023-01-29T22:00:41.794Z,21.45
2023-01-29T22:03:08.904Z,25.65
2023-01-29T22:05:35.906Z,28.23
2023-01-29T22:08:04.848Z,19.00
2023-01-29T22:10:34.075Z,16.33
2023-01-29T22:13:02.063Z,12.50
2023-01-29T22:15:29.033Z,17.80
2023-01-29T22:17:55.971Z,21.75
2023-01-29T22:20:29.839Z,14.30
2023-01-29T22:22:59.009Z,14.38
2023-01-29T22:25:26.105Z,15.07
2023-01-29T22:27:53.220Z,18.55
2023-01-29T22:30:21.740Z,23.70
2023-01-29T22:32:48.638Z,24.90
2023-01-29T22:35:15.593Z,39.92
2023-01-29T22:37:42.573Z,39.92
2023-01-29T22:40:09.791Z,29.27
2023-01-29T22:42:36.810Z,31.05
2023-01-29T22:45:03.757Z,32.20
2023-01-29T22:47:33.158Z,28.35
2023-01-29T22:49:59.958Z,29.08
2023-01-29T22:52:27.996Z,24.00
2023-01-29T22:54:54.910Z,23.40
2023-01-29T22:57:21.687Z,21.48
2023-01-29T22:59:48.569Z,16.05
2023-01-29T23:02:15.366Z,14.25
2023-01-29T23:04:42.523Z,12.00
2023-01-29T23:07:09.509Z,11.93
2023-01-29T23:09:36.743Z,16.70
2023-01-29T23:12:03.779Z,14.82
2023-01-29T23:14:30.675Z,17.65
2023-01-29T23:16:57.527Z,19.52
2023-01-29T23:19:24.508Z,15.02
2023-01-29T23:21:51.325Z,14.25
2023-01-29T23:24:18.461Z,13.90
2023-01-29T23:27:03.514Z,12.73
2023-01-29T23:29:30.312Z,15.23
2023-01-29T23:31:57.070Z,14.05
2023-01-29T23:34:23.992Z,15.63
2023-01-29T23:36:50.871Z,14.98
2023-01-29T23:39:18.429Z,14.48
2023-01-29T23:41:45.190Z,12.45
2023-01-29T23:44:12.083Z,11.77
2023-01-29T23:46:38.807Z,10.88
2023-01-29T23:49:06.057Z,14.38
2023-01-29T23:51:33.026Z,13.48
2023-01-29T23:53:59.789Z,19.30
2023-01-29T23:56:26.613Z,21.40
2023-01-29T23:58:57.647Z,18.08
